createdAt,value
2018-07-27T00:00:41.466Z,100054.64
2018-07-27T00:03:10.585Z,100055.48
2018-07-27T00:05:39.673Z,100053.03
2018-07-27T00:08:08.628Z,100056.34
2018-07-27T00:10:37.588Z,100061.52
2018-07-27T00:13:06.522Z,100064.59
2018-07-27T00:15:39.817Z,100064.59
2018-07-27T00:18:08.771Z,100061.56
2018-07-27T00:20:37.704Z,100067.73
2018-07-27T00:23:06.694Z,100061.64
2018-07-27T00:25:35.684Z,100062.91
2018-07-27T00:28:04.588Z,100053.78
2018-07-27T00:30:33.543Z,100056.84
2018-07-27T00:33:02.561Z,100058.72
2018-07-27T00:35:31.499Z,100060.44
2018-07-27T00:38:00.444Z,100059.06
2018-07-27T00:40:29.368Z,100058.16
2018-07-27T00:42:58.327Z,100057.16
2018-07-27T00:45:27.270Z,100059.21
2018-07-27T00:47:56.319Z,100062.31
2018-07-27T00:50:25.264Z,100063.30
2018-07-27T00:52:54.209Z,100059.42
2018-07-27T00:55:23.409Z,100054.44
2018-07-27T00:57:52.348Z,100059.72
2018-07-27T01:00:21.319Z,100054.41
2018-07-27T01:02:50.346Z,100054.67
2018-07-27T01:05:19.336Z,100055.36
2018-07-27T01:07:48.296Z,100056.06
2018-07-27T01:10:17.264Z,100059.00
2018-07-27T01:12:46.245Z,100053.55
2018-07-27T01:15:15.249Z,100048.47
2018-07-27T01:17:44.195Z,100050.17
2018-07-27T01:20:13.173Z,100053.73
2018-07-27T01:22:42.391Z,100048.50
2018-07-27T01:25:11.313Z,100057.45
2018-07-27T01:27:40.268Z,100055.10
2018-07-27T01:30:09.208Z,100058.17
2018-07-27T01:32:38.540Z,100050.00
2018-07-27T01:35:07.497Z,100047.88
2018-07-27T01:37:36.476Z,100049.92
2018-07-27T01:40:05.743Z,100047.88
2018-07-27T01:42:34.684Z,100049.95
2018-07-27T01:45:03.628Z,100051.89
2018-07-27T01:47:32.675Z,100056.31
2018-07-27T01:50:01.618Z,100050.78
2018-07-27T01:52:30.563Z,100051.83
2018-07-27T01:54:59.480Z,100053.42
2018-07-27T01:57:28.491Z,100044.47
2018-07-27T01:59:57.536Z,100048.68
2018-07-27T02:02:26.476Z,100051.06
2018-07-27T02:04:55.394Z,100047.77
2018-07-27T02:07:24.365Z,100051.64
2018-07-27T02:09:53.421Z,100042.31
2018-07-27T02:12:22.398Z,100041.85
2018-07-27T02:14:51.515Z,100041.03
2018-07-27T02:17:20.423Z,100039.67
2018-07-27T02:19:49.378Z,100035.30
2018-07-27T02:22:18.340Z,100040.95
2018-07-27T02:24:47.277Z,100045.75
2018-07-27T02:27:16.241Z,100044.94
2018-07-27T02:29:45.171Z,100040.17
2018-07-27T02:32:14.126Z,100029.72
2018-07-27T02:34:43.039Z,100038.25
2018-07-27T02:37:11.965Z,100042.13
2018-07-27T02:39:40.916Z,100042.62
2018-07-27T02:42:09.894Z,100042.30
2018-07-27T02:44:38.835Z,100043.09
2018-07-27T02:47:08.011Z,100038.44
2018-07-27T02:49:37.043Z,100037.66
2018-07-27T02:52:06.025Z,100039.59
2018-07-27T02:54:34.965Z,100037.08
2018-07-27T02:57:03.876Z,100040.42
2018-07-27T02:59:32.813Z,100036.14
2018-07-27T03:02:01.842Z,100038.30
2018-07-27T03:04:30.846Z,100039.09
2018-07-27T03:06:59.800Z,100041.14
2018-07-27T03:09:28.766Z,100041.59
2018-07-27T03:11:57.718Z,100039.12
2018-07-27T03:14:26.652Z,100044.91
2018-07-27T03:16:55.750Z,100040.73
2018-07-27T03:19:24.687Z,100041.89
2018-07-27T03:21:53.614Z,100042.89
2018-07-27T03:24:22.762Z,100042.34
2018-07-27T03:26:51.717Z,100039.39
2018-07-27T03:29:20.667Z,100041.56
2018-07-27T03:31:49.567Z,100049.06
2018-07-27T03:34:18.512Z,100052.57
2018-07-27T03:36:47.439Z,100053.72
2018-07-27T03:39:16.416Z,100051.78
2018-07-27T03:41:45.371Z,100049.64
2018-07-27T03:44:14.331Z,100047.37
2018-07-27T03:46:43.306Z,100049.52
2018-07-27T03:49:12.302Z,100056.31
2018-07-27T03:51:41.256Z,100053.81
2018-07-27T03:54:10.245Z,100050.27
2018-07-27T03:56:39.256Z,100055.01
2018-07-27T03:59:08.196Z,100058.88
2018-07-27T04:01:37.190Z,100060.57
2018-07-27T04:04:06.156Z,100061.72
2018-07-27T04:06:35.253Z,100059.45
2018-07-27T04:09:06.135Z,100064.08
2018-07-27T04:11:35.087Z,100066.83
2018-07-27T04:14:04.033Z,100066.92
2018-07-27T04:16:33.006Z,100069.97
2018-07-27T04:19:02.376Z,100066.88
2018-07-27T04:21:31.616Z,100071.08
2018-07-27T04:24:00.596Z,100071.73
2018-07-27T04:26:29.518Z,100070.37
2018-07-27T04:28:58.456Z,100069.22
2018-07-27T04:31:27.410Z,100068.09
2018-07-27T04:33:56.333Z,100064.67
2018-07-27T04:36:25.258Z,100060.59
2018-07-27T04:38:54.207Z,100055.03
2018-07-27T04:41:23.131Z,100057.98
2018-07-27T04:43:52.186Z,100057.36
2018-07-27T04:46:21.448Z,100059.05
2018-07-27T04:48:50.385Z,100067.09
2018-07-27T04:51:19.440Z,100067.02
2018-07-27T04:53:48.476Z,100067.67
2018-07-27T04:56:17.535Z,100058.59
2018-07-27T04:58:46.513Z,100061.68
2018-07-27T05:01:15.518Z,100062.25
2018-07-27T05:03:44.607Z,100058.80
2018-07-27T05:06:14.107Z,100061.38
2018-07-27T05:09:52.220Z,100064.89
2018-07-27T05:12:21.216Z,100062.66
2018-07-27T05:14:50.840Z,100063.27
2018-07-27T05:17:19.941Z,100064.63
2018-07-27T05:19:48.908Z,100063.34
2018-07-27T05:22:17.938Z,100067.11
2018-07-27T05:24:47.472Z,100072.64
2018-07-27T05:27:16.416Z,100072.78
2018-07-27T05:29:45.369Z,100071.34
2018-07-27T05:32:14.294Z,100071.16
2018-07-27T05:34:43.256Z,100074.26
2018-07-27T05:37:12.194Z,100071.78
2018-07-27T05:39:41.579Z,100071.62
2018-07-27T05:42:10.552Z,100074.13
2018-07-27T05:44:39.633Z,100069.79
2018-07-27T05:47:12.425Z,100071.01
2018-07-27T05:49:41.308Z,100067.11
2018-07-27T05:52:10.334Z,100074.37
2018-07-27T05:54:39.324Z,100069.21
2018-07-27T05:57:08.366Z,100070.41
2018-07-27T05:59:37.325Z,100071.67
2018-07-27T06:02:06.318Z,100074.13
2018-07-27T06:04:35.239Z,100078.50
2018-07-27T06:07:04.196Z,100070.86
2018-07-27T06:09:33.163Z,100073.65
2018-07-27T06:12:02.104Z,100069.84
2018-07-27T06:14:31.071Z,100070.56
2018-07-27T06:16:59.969Z,100070.06
2018-07-27T06:19:28.877Z,100075.96
2018-07-27T06:21:57.892Z,100070.97
2018-07-27T06:24:28.770Z,100067.86
2018-07-27T06:26:57.783Z,100074.59
2018-07-27T06:29:26.708Z,100075.56
2018-07-27T06:31:55.948Z,100081.27
2018-07-27T06:34:24.847Z,100076.13
2018-07-27T06:36:53.795Z,100078.73
2018-07-27T06:39:23.096Z,100068.42
2018-07-27T06:41:52.370Z,100071.80
2018-07-27T06:44:21.284Z,100073.61
2018-07-27T06:46:50.221Z,100071.06
2018-07-27T06:49:19.200Z,100069.83
2018-07-27T06:51:48.133Z,100067.59
2018-07-27T06:54:17.160Z,100063.60
2018-07-27T06:56:46.317Z,100064.91
2018-07-27T06:59:15.300Z,100067.04
2018-07-27T07:01:45.043Z,100065.25
2018-07-27T07:04:14.665Z,100058.69
2018-07-27T07:06:44.143Z,100061.69
2018-07-27T07:09:13.412Z,100054.56
2018-07-27T07:11:42.252Z,100057.49
2018-07-27T07:14:11.189Z,100045.44
2018-07-27T07:16:40.137Z,100038.88
2018-07-27T07:19:09.813Z,100047.88
2018-07-27T07:21:38.904Z,100050.50
2018-07-27T07:24:08.283Z,100044.83
2018-07-27T07:26:37.474Z,100049.88
2018-07-27T07:29:06.411Z,100035.73
2018-07-27T07:31:35.355Z,100029.72
2018-07-27T07:34:04.279Z,100033.36
2018-07-27T07:36:33.199Z,100021.36
2018-07-27T07:39:02.226Z,100028.56
2018-07-27T07:41:31.124Z,100025.92
2018-07-27T07:44:00.138Z,100025.28
2018-07-27T07:46:29.068Z,100030.46
2018-07-27T07:49:02.145Z,100023.44
2018-07-27T07:51:31.212Z,100017.88
2018-07-27T07:54:00.357Z,100014.89
2018-07-27T07:56:29.286Z,100011.62
2018-07-27T07:58:58.232Z,100017.09
2018-07-27T08:01:27.146Z,100012.73
2018-07-27T08:03:56.316Z,100006.81
2018-07-27T08:06:25.233Z,99995.18
2018-07-27T08:08:54.487Z,100004.09
2018-07-27T08:11:23.579Z,100003.81
2018-07-27T08:13:52.512Z,100004.45
2018-07-27T08:16:21.455Z,100003.08
2018-07-27T08:18:50.340Z,99998.35
2018-07-27T08:21:22.627Z,99998.27
2018-07-27T08:23:51.540Z,99995.52
2018-07-27T08:26:41.427Z,99988.46
2018-07-27T08:29:11.316Z,99977.92
2018-07-27T08:31:41.759Z,99981.05
2018-07-27T08:34:11.039Z,99980.67
2018-07-27T08:36:40.012Z,99976.83
2018-07-27T08:39:10.292Z,99973.26
2018-07-27T08:41:39.760Z,99971.36
2018-07-27T08:44:09.666Z,99962.91
2018-07-27T08:46:38.866Z,99971.36
2018-07-27T08:49:08.040Z,99957.55
2018-07-27T08:51:37.062Z,99953.82
2018-07-27T08:54:05.960Z,99951.95
2018-07-27T08:56:34.865Z,99956.44
2018-07-27T08:59:03.762Z,99952.69
2018-07-27T09:01:32.683Z,99952.94
2018-07-27T09:04:01.613Z,99951.83
2018-07-27T09:06:30.528Z,99945.31
2018-07-27T09:08:59.434Z,99949.89
2018-07-27T09:11:28.398Z,99959.44
2018-07-27T09:13:57.293Z,99942.42
2018-07-27T09:16:26.223Z,99951.16
2018-07-27T09:18:55.156Z,99953.45
2018-07-27T09:21:24.060Z,99947.83
2018-07-27T09:23:52.969Z,99946.58
2018-07-27T09:26:21.887Z,99934.64
2018-07-27T09:28:50.852Z,99926.30
2018-07-27T09:31:19.818Z,99934.72
2018-07-27T09:33:48.732Z,99937.28
2018-07-27T09:36:17.660Z,99930.39
2018-07-27T09:38:46.591Z,99933.07
2018-07-27T09:41:15.502Z,99931.65
2018-07-27T09:43:44.441Z,99934.41
2018-07-27T09:46:13.436Z,99928.91
2018-07-27T09:48:46.504Z,99930.37
2018-07-27T09:51:15.417Z,99927.05
2018-07-27T09:53:44.362Z,99919.37
2018-07-27T09:56:13.277Z,99911.17
2018-07-27T09:58:42.199Z,99910.41
2018-07-27T10:01:16.533Z,99904.98
2018-07-27T10:03:45.474Z,99906.62
2018-07-27T10:06:14.380Z,99907.60
2018-07-27T10:08:43.326Z,99904.23
2018-07-27T10:11:12.254Z,99901.34
2018-07-27T10:13:41.203Z,99895.46
2018-07-27T10:16:10.148Z,99891.91
2018-07-27T10:18:39.081Z,99894.06
2018-07-27T10:21:08.515Z,99888.03
2018-07-27T10:23:37.606Z,99881.30
2018-07-27T10:26:06.581Z,99886.28
2018-07-27T10:28:35.518Z,99891.30
2018-07-27T10:31:04.467Z,99875.20
2018-07-27T10:33:33.353Z,99871.59
2018-07-27T10:36:02.276Z,99865.70
2018-07-27T10:38:31.356Z,99858.48
2018-07-27T10:41:00.195Z,99870.40
2018-07-27T10:43:29.132Z,99863.77
2018-07-27T10:45:58.016Z,99860.64
2018-07-27T10:48:26.940Z,99865.75
2018-07-27T10:50:55.831Z,99860.98
2018-07-27T10:53:24.751Z,99850.95
2018-07-27T10:55:53.633Z,99850.24
2018-07-27T10:58:22.540Z,99857.51
2018-07-27T11:00:51.429Z,99846.43
2018-07-27T11:03:20.338Z,99838.07
2018-07-27T11:05:49.252Z,99827.99
2018-07-27T11:08:18.196Z,99850.12
2018-07-27T11:10:47.193Z,99851.02
2018-07-27T11:13:16.236Z,99846.17
2018-07-27T11:15:47.283Z,99839.56
2018-07-27T11:18:16.220Z,99845.31
2018-07-27T11:20:45.286Z,99840.67
2018-07-27T11:23:14.263Z,99835.69
2018-07-27T11:25:43.236Z,99840.83
2018-07-27T11:28:12.143Z,99837.06
2018-07-27T11:30:41.140Z,99829.73
2018-07-27T11:33:10.212Z,99837.14
2018-07-27T11:35:39.149Z,99824.60
2018-07-27T11:38:08.194Z,99828.31
2018-07-27T11:40:37.128Z,99834.81
2018-07-27T11:43:06.224Z,99817.63
2018-07-27T11:45:35.141Z,99820.85
2018-07-27T11:48:04.057Z,99810.82
2018-07-27T11:50:32.999Z,99800.67
2018-07-27T11:53:01.969Z,99804.25
2018-07-27T11:55:30.882Z,99805.73
2018-07-27T11:58:00.390Z,99796.09
2018-07-27T12:00:29.311Z,99794.56
2018-07-27T12:02:58.235Z,99782.69
2018-07-27T12:05:27.353Z,99773.86
2018-07-27T12:07:56.290Z,99770.45
2018-07-27T12:10:25.421Z,99764.30
2018-07-27T12:12:54.480Z,99762.19
2018-07-27T12:15:23.423Z,99754.34
2018-07-27T12:17:52.353Z,99763.46
2018-07-27T12:20:21.280Z,99762.00
2018-07-27T12:22:50.290Z,99761.00
2018-07-27T12:25:19.214Z,99761.86
2018-07-27T12:27:48.116Z,99768.66
2018-07-27T12:30:17.014Z,99773.75
2018-07-27T12:32:45.980Z,99770.95
2018-07-27T12:35:14.868Z,99766.25
2018-07-27T12:37:43.775Z,99762.15
2018-07-27T12:40:12.712Z,99745.86
2018-07-27T12:42:41.772Z,99736.73
2018-07-27T12:45:10.675Z,99726.09
2018-07-27T12:47:39.586Z,99738.14
2018-07-27T12:50:08.528Z,99729.31
2018-07-27T12:52:37.475Z,99724.86
2018-07-27T12:55:06.836Z,99719.20
2018-07-27T12:57:35.874Z,99727.03
2018-07-27T13:00:06.401Z,99720.77
2018-07-27T13:02:35.350Z,99713.38
2018-07-27T13:05:04.760Z,99707.77
2018-07-27T13:07:33.636Z,99709.92
2018-07-27T13:10:04.475Z,99714.20
2018-07-27T13:12:34.400Z,99713.94
2018-07-27T13:15:03.329Z,99707.92
2018-07-27T13:17:32.269Z,99702.79
2018-07-27T13:20:01.201Z,99702.88
2018-07-27T13:22:30.206Z,99708.03
2018-07-27T13:24:59.131Z,99708.20
2018-07-27T13:27:28.139Z,99705.78
2018-07-27T13:29:57.067Z,99705.20
2018-07-27T13:32:26.008Z,99708.33
2018-07-27T13:34:56.930Z,99699.17
2018-07-27T13:37:27.168Z,99708.50
2018-07-27T13:39:57.262Z,99705.93
2018-07-27T13:42:27.402Z,99702.97
2018-07-27T13:44:56.488Z,99704.47
2018-07-27T13:47:25.420Z,99703.20
2018-07-27T13:49:54.702Z,99705.48
2018-07-27T13:52:23.809Z,99705.63
2018-07-27T13:54:52.791Z,99714.84
2018-07-27T13:57:21.718Z,99725.23
2018-07-27T13:59:50.637Z,99727.88
2018-07-27T14:02:19.564Z,99739.23
2018-07-27T14:04:48.596Z,99740.91
2018-07-27T14:07:17.608Z,99730.95
2018-07-27T14:09:46.908Z,99744.72
2018-07-27T14:12:15.853Z,99761.72
2018-07-27T14:14:44.784Z,99771.66
2018-07-27T14:17:13.734Z,99788.49
2018-07-27T14:19:42.711Z,99799.20
2018-07-27T14:22:11.768Z,99776.34
2018-07-27T14:24:40.706Z,99776.97
2018-07-27T14:27:09.615Z,99777.09
2018-07-27T14:29:38.561Z,99779.84
2018-07-27T14:32:07.485Z,99775.12
2018-07-27T14:34:36.382Z,99776.67
2018-07-27T14:37:05.335Z,99780.27
2018-07-27T14:39:34.224Z,99777.11
2018-07-27T14:42:03.198Z,99770.80
2018-07-27T14:44:32.220Z,99770.06
2018-07-27T14:47:01.052Z,99769.97
2018-07-27T14:49:29.944Z,99762.77
2018-07-27T14:51:58.888Z,99763.81
2018-07-27T14:54:27.861Z,99757.46
2018-07-27T14:56:57.001Z,99752.10
2018-07-27T14:59:25.933Z,99753.15
2018-07-27T15:01:54.960Z,99762.64
2018-07-27T15:04:23.871Z,99752.66
2018-07-27T15:06:52.785Z,99753.70
2018-07-27T15:09:21.738Z,99751.45
2018-07-27T15:11:50.677Z,99744.49
2018-07-27T15:14:19.584Z,99742.45
2018-07-27T15:16:48.806Z,99747.38
2018-07-27T15:19:17.799Z,99751.30
2018-07-27T15:21:46.732Z,99758.06
2018-07-27T15:24:15.773Z,99764.50
2018-07-27T15:26:44.707Z,99765.04
2018-07-27T15:29:13.633Z,99773.13
2018-07-27T15:31:42.550Z,99775.55
2018-07-27T15:34:11.480Z,99773.96
2018-07-27T15:36:40.500Z,99759.24
2018-07-27T15:39:10.102Z,99768.85
2018-07-27T15:41:39.045Z,99755.98
2018-07-27T15:44:08.016Z,99759.96
2018-07-27T15:46:36.982Z,99758.58
2018-07-27T15:49:06.077Z,99755.47
2018-07-27T15:51:35.088Z,99755.13
2018-07-27T15:54:04.037Z,99752.09
2018-07-27T15:56:32.989Z,99748.99
2018-07-27T15:59:02.028Z,99747.77
2018-07-27T16:01:30.971Z,99753.25
2018-07-27T16:03:59.907Z,99752.10
2018-07-27T16:06:28.792Z,99753.66
2018-07-27T16:08:57.704Z,99763.80
2018-07-27T16:11:26.591Z,99761.61
2018-07-27T16:13:55.540Z,99771.66
2018-07-27T16:16:24.415Z,99770.38
2018-07-27T16:18:53.344Z,99766.47
2018-07-27T16:21:22.284Z,99765.02
2018-07-27T16:23:51.227Z,99756.95
2018-07-27T16:26:20.160Z,99746.90
2018-07-27T16:28:49.154Z,99745.95
2018-07-27T16:31:18.156Z,99740.48
2018-07-27T16:33:47.134Z,99742.94
2018-07-27T16:36:16.020Z,99745.44
2018-07-27T16:38:44.972Z,99740.73
2018-07-27T16:41:13.920Z,99737.07
2018-07-27T16:43:42.981Z,99739.91
2018-07-27T16:46:11.915Z,99730.88
2018-07-27T16:48:40.922Z,99742.99
2018-07-27T16:51:09.837Z,99739.73
2018-07-27T16:53:38.782Z,99735.48
2018-07-27T16:56:07.720Z,99737.46
2018-07-27T16:58:36.726Z,99745.34
2018-07-27T17:01:05.654Z,99739.64
2018-07-27T17:03:34.652Z,99740.58
2018-07-27T17:06:03.581Z,99742.10
2018-07-27T17:08:32.692Z,99744.47
2018-07-27T17:11:01.600Z,99748.63
2018-07-27T17:13:30.532Z,99749.91
2018-07-27T17:15:59.463Z,99744.70
2018-07-27T17:18:28.564Z,99739.22
2018-07-27T17:20:57.909Z,99732.70
2018-07-27T17:23:26.872Z,99736.39
2018-07-27T17:25:55.799Z,99731.19
2018-07-27T17:28:24.777Z,99732.44
2018-07-27T17:30:53.634Z,99730.96
2018-07-27T17:33:22.548Z,99731.55
2018-07-27T17:35:51.463Z,99735.20
2018-07-27T17:38:20.399Z,99734.61
2018-07-27T17:40:49.485Z,99738.55
2018-07-27T17:43:18.541Z,99739.90
2018-07-27T17:45:47.474Z,99744.73
2018-07-27T17:48:16.438Z,99739.01
2018-07-27T17:50:45.514Z,99748.17
2018-07-27T17:53:14.436Z,99753.28
2018-07-27T17:55:43.410Z,99757.19
2018-07-27T17:58:12.351Z,99760.05
2018-07-27T18:00:41.496Z,99756.52
2018-07-27T18:03:10.442Z,99759.38
2018-07-27T18:05:39.381Z,99762.72
2018-07-27T18:08:08.461Z,99766.94
2018-07-27T18:10:37.384Z,99763.26
2018-07-27T18:13:06.352Z,99762.57
2018-07-27T18:15:35.254Z,99765.60
2018-07-27T18:18:04.166Z,99768.77
2018-07-27T18:20:33.125Z,99766.67
2018-07-27T18:23:02.064Z,99771.58
2018-07-27T18:25:31.079Z,99757.74
2018-07-27T18:27:59.971Z,99756.87
2018-07-27T18:30:28.946Z,99753.36
2018-07-27T18:32:57.845Z,99746.09
2018-07-27T18:35:26.785Z,99748.37
2018-07-27T18:37:55.824Z,99745.48
2018-07-27T18:40:24.769Z,99746.74
2018-07-27T18:42:53.719Z,99742.48
2018-07-27T18:45:22.673Z,99739.33
2018-07-27T18:47:51.644Z,99737.02
2018-07-27T18:50:20.539Z,99739.00
2018-07-27T18:52:49.495Z,99737.87
2018-07-27T18:55:18.500Z,99738.28
2018-07-27T18:57:47.486Z,99739.81
2018-07-27T19:00:16.412Z,99750.78
2018-07-27T19:02:45.378Z,99746.91
2018-07-27T19:05:14.395Z,99753.51
2018-07-27T19:07:43.359Z,99755.20
2018-07-27T19:10:12.313Z,99763.91
2018-07-27T19:12:41.291Z,99766.02
2018-07-27T19:15:10.253Z,99766.97
2018-07-27T19:17:39.424Z,99761.20
2018-07-27T19:20:08.359Z,99762.33
2018-07-27T19:22:37.328Z,99760.41
2018-07-27T19:25:06.380Z,99752.39
2018-07-27T19:27:35.326Z,99760.23
2018-07-27T19:30:06.588Z,99749.39
2018-07-27T19:32:35.535Z,99757.15
2018-07-27T19:35:04.514Z,99758.71
2018-07-27T19:37:33.474Z,99746.08
2018-07-27T19:40:02.468Z,99749.59
2018-07-27T19:42:31.515Z,99745.07
2018-07-27T19:45:00.455Z,99746.70
2018-07-27T19:47:29.418Z,99750.97
2018-07-27T19:49:58.368Z,99743.84
2018-07-27T19:52:27.321Z,99749.48
2018-07-27T19:54:56.403Z,99748.16
2018-07-27T19:57:25.332Z,99752.75
2018-07-27T19:59:54.622Z,99752.77
2018-07-27T20:02:23.586Z,99745.53
2018-07-27T20:04:52.456Z,99743.60
2018-07-27T20:07:21.483Z,99743.61
2018-07-27T20:09:50.431Z,99736.36
2018-07-27T20:12:19.408Z,99736.50
2018-07-27T20:14:48.351Z,99727.55
2018-07-27T20:17:17.299Z,99729.78
2018-07-27T20:19:46.255Z,99728.91
2018-07-27T20:22:15.385Z,99732.70
2018-07-27T20:24:44.348Z,99735.48
2018-07-27T20:27:13.299Z,99730.12
2018-07-27T20:29:42.319Z,99730.33
2018-07-27T20:32:11.317Z,99736.64
2018-07-27T20:34:40.295Z,99737.28
2018-07-27T20:37:09.363Z,99737.08
2018-07-27T20:39:38.405Z,99733.99
2018-07-27T20:42:07.403Z,99734.34
2018-07-27T20:44:36.379Z,99734.20
2018-07-27T20:47:05.854Z,99733.27
2018-07-27T20:49:34.799Z,99731.12
2018-07-27T20:52:03.733Z,99738.94
2018-07-27T20:54:32.751Z,99731.34
2018-07-27T20:57:01.756Z,99730.41
2018-07-27T20:59:30.672Z,99734.55
2018-07-27T21:01:59.600Z,99730.47
2018-07-27T21:04:28.581Z,99738.58
2018-07-27T21:06:57.461Z,99743.83
2018-07-27T21:09:26.404Z,99739.16
2018-07-27T21:11:55.377Z,99735.42
2018-07-27T21:14:24.351Z,99736.93
2018-07-27T21:16:53.313Z,99735.28
2018-07-27T21:19:22.208Z,99740.82
2018-07-27T21:21:51.231Z,99742.82
2018-07-27T21:24:20.189Z,99731.25
2018-07-27T21:26:49.145Z,99734.64
2018-07-27T21:29:18.063Z,99737.91
2018-07-27T21:31:46.989Z,99740.00
2018-07-27T21:34:17.289Z,99735.70
2018-07-27T21:36:47.655Z,99720.65
2018-07-27T21:39:16.938Z,99723.81
2018-07-27T21:41:45.897Z,99726.67
2018-07-27T21:44:15.645Z,99728.67
2018-07-27T21:46:44.576Z,99718.94
2018-07-27T21:49:13.503Z,99718.59
2018-07-27T21:51:42.482Z,99725.89
2018-07-27T21:54:11.374Z,99724.39
2018-07-27T21:56:40.324Z,99715.44
2018-07-27T21:59:09.344Z,99715.92
2018-07-27T22:01:38.289Z,99720.88
2018-07-27T22:04:07.386Z,99717.34
2018-07-27T22:06:36.393Z,99718.95
2018-07-27T22:09:08.153Z,99711.95
2018-07-27T22:11:37.118Z,99711.80
2018-07-27T22:14:06.117Z,99716.05
2018-07-27T22:16:35.221Z,99714.73
2018-07-27T22:19:04.201Z,99712.15
2018-07-27T22:21:33.151Z,99705.92
2018-07-27T22:24:02.064Z,99702.32
2018-07-27T22:26:31.033Z,99699.60
2018-07-27T22:28:59.960Z,99694.39
2018-07-27T22:31:28.866Z,99697.36
2018-07-27T22:33:57.788Z,99706.48
2018-07-27T22:36:26.715Z,99707.84
2018-07-27T22:38:55.714Z,99713.34
2018-07-27T22:41:24.889Z,99709.06
2018-07-27T22:43:53.831Z,99706.34
2018-07-27T22:46:22.761Z,99691.92
2018-07-27T22:48:51.701Z,99678.75
2018-07-27T22:51:20.745Z,99685.01
2018-07-27T22:53:49.748Z,99687.49
2018-07-27T22:56:18.686Z,99689.03
2018-07-27T22:58:47.730Z,99697.03
2018-07-27T23:01:16.745Z,99696.39
2018-07-27T23:03:45.745Z,99694.01
2018-07-27T23:06:14.705Z,99692.03
2018-07-27T23:08:43.698Z,99697.95
2018-07-27T23:11:12.623Z,99696.70
2018-07-27T23:13:41.549Z,99689.28
2018-07-27T23:16:10.502Z,99684.56
2018-07-27T23:18:39.429Z,99684.66
2018-07-27T23:21:08.403Z,99677.14
2018-07-27T23:23:37.297Z,99675.38
2018-07-27T23:26:06.336Z,99674.45
2018-07-27T23:28:35.253Z,99684.48
2018-07-27T23:31:04.209Z,99686.38
2018-07-27T23:33:33.118Z,99671.35
2018-07-27T23:36:02.056Z,99674.03
2018-07-27T23:38:30.991Z,99667.87
2018-07-27T23:41:00.051Z,99664.22
2018-07-27T23:43:28.967Z,99664.45
2018-07-27T23:45:57.925Z,99667.32
2018-07-27T23:48:26.871Z,99668.22
2018-07-27T23:50:55.821Z,99667.55
2018-07-27T23:53:24.747Z,99657.72
2018-07-27T23:55:53.641Z,99648.36
2018-07-27T23:58:22.598Z,99644.22
